sensor_id;sensor_type;location;lat;lon;timestamp;P1;durP1;ratioP1;P2;durP2;ratioP2
17488;SDS011;8861;52.644;4.734;2023-07-16T00:01:22;22.83;;;8.27;;
17488;SDS011;8861;52.644;4.734;2023-07-16T00:03:49;23.07;;;8.07;;
17488;SDS011;8861;52.644;4.734;2023-07-16T00:06:16;24.33;;;8.43;;
17488;SDS011;8861;52.644;4.734;2023-07-16T00:08:43;26.17;;;9.20;;
17488;SDS011;8861;52.644;4.734;2023-07-16T00:11:10;22.83;;;8.20;;
17488;SDS011;8861;52.644;4.734;2023-07-16T00:13:38;23.47;;;8.83;;
17488;SDS011;8861;52.644;4.734;2023-07-16T00:16:11;25.87;;;8.73;;
17488;SDS011;8861;52.644;4.734;2023-07-16T00:18:38;24.93;;;8.90;;
17488;SDS011;8861;52.644;4.734;2023-07-16T00:21:05;22.27;;;8.33;;
17488;SDS011;8861;52.644;4.734;2023-07-16T00:23:32;22.83;;;8.93;;
17488;SDS011;8861;52.644;4.734;2023-07-16T00:25:59;23.20;;;8.03;;
17488;SDS011;8861;52.644;4.734;2023-07-16T00:28:26;21.83;;;8.70;;
17488;SDS011;8861;52.644;4.734;2023-07-16T00:30:54;27.00;;;9.17;;
17488;SDS011;8861;52.644;4.734;2023-07-16T00:33:21;22.77;;;9.30;;
17488;SDS011;8861;52.644;4.734;2023-07-16T00:35:48;21.90;;;8.50;;
17488;SDS011;8861;52.644;4.734;2023-07-16T00:38:16;25.47;;;9.27;;
17488;SDS011;8861;52.644;4.734;2023-07-16T00:40:44;22.40;;;9.43;;
17488;SDS011;8861;52.644;4.734;2023-07-16T00:43:11;20.67;;;9.10;;
17488;SDS011;8861;52.644;4.734;2023-07-16T00:45:38;26.20;;;9.90;;
17488;SDS011;8861;52.644;4.734;2023-07-16T00:48:07;22.90;;;9.53;;
17488;SDS011;8861;52.644;4.734;2023-07-16T00:50:35;24.47;;;9.77;;
17488;SDS011;8861;52.644;4.734;2023-07-16T00:53:04;22.73;;;9.37;;
17488;SDS011;8861;52.644;4.734;2023-07-16T00:55:32;22.27;;;9.20;;
17488;SDS011;8861;52.644;4.734;2023-07-16T00:58:01;21.50;;;9.40;;
17488;SDS011;8861;52.644;4.734;2023-07-16T01:00:30;22.50;;;9.13;;
17488;SDS011;8861;52.644;4.734;2023-07-16T01:02:57;24.97;;;9.70;;
17488;SDS011;8861;52.644;4.734;2023-07-16T01:05:26;25.77;;;9.50;;
17488;SDS011;8861;52.644;4.734;2023-07-16T01:08:01;25.57;;;10.00;;
17488;SDS011;8861;52.644;4.734;2023-07-16T01:10:31;21.90;;;9.57;;
17488;SDS011;8861;52.644;4.734;2023-07-16T01:12:58;26.80;;;9.20;;
17488;SDS011;8861;52.644;4.734;2023-07-16T01:15:27;23.20;;;9.83;;
17488;SDS011;8861;52.644;4.734;2023-07-16T01:17:54;21.13;;;9.00;;
17488;SDS011;8861;52.644;4.734;2023-07-16T01:20:21;21.60;;;8.70;;
17488;SDS011;8861;52.644;4.734;2023-07-16T01:22:52;24.33;;;9.13;;
17488;SDS011;8861;52.644;4.734;2023-07-16T01:25:57;23.57;;;8.80;;
17488;SDS011;8861;52.644;4.734;2023-07-16T01:28:44;22.00;;;8.13;;
17488;SDS011;8861;52.644;4.734;2023-07-16T01:31:26;23.83;;;8.40;;
17488;SDS011;8861;52.644;4.734;2023-07-16T01:33:55;23.83;;;8.30;;
17488;SDS011;8861;52.644;4.734;2023-07-16T01:36:23;23.63;;;7.87;;
17488;SDS011;8861;52.644;4.734;2023-07-16T01:38:51;24.50;;;8.37;;
17488;SDS011;8861;52.644;4.734;2023-07-16T01:41:18;22.47;;;7.77;;
17488;SDS011;8861;52.644;4.734;2023-07-16T01:43:45;27.77;;;8.53;;
17488;SDS011;8861;52.644;4.734;2023-07-16T01:46:13;25.10;;;8.90;;
17488;SDS011;8861;52.644;4.734;2023-07-16T01:48:41;23.27;;;8.80;;
17488;SDS011;8861;52.644;4.734;2023-07-16T01:51:08;25.27;;;9.07;;
17488;SDS011;8861;52.644;4.734;2023-07-16T01:53:39;30.03;;;9.10;;
17488;SDS011;8861;52.644;4.734;2023-07-16T01:56:06;27.77;;;9.77;;
17488;SDS011;8861;52.644;4.734;2023-07-16T01:58:33;28.47;;;9.90;;
17488;SDS011;8861;52.644;4.734;2023-07-16T02:01:00;29.23;;;10.30;;
17488;SDS011;8861;52.644;4.734;2023-07-16T02:03:27;29.90;;;10.07;;
17488;SDS011;8861;52.644;4.734;2023-07-16T02:05:55;25.17;;;9.30;;
17488;SDS011;8861;52.644;4.734;2023-07-16T02:08:22;23.70;;;8.70;;
17488;SDS011;8861;52.644;4.734;2023-07-16T02:10:49;27.70;;;8.80;;
17488;SDS011;8861;52.644;4.734;2023-07-16T02:13:16;25.30;;;8.63;;
17488;SDS011;8861;52.644;4.734;2023-07-16T02:15:43;21.23;;;7.80;;
17488;SDS011;8861;52.644;4.734;2023-07-16T02:18:10;22.37;;;7.77;;
17488;SDS011;8861;52.644;4.734;2023-07-16T02:20:37;22.67;;;7.97;;
17488;SDS011;8861;52.644;4.734;2023-07-16T02:23:06;23.03;;;7.40;;
17488;SDS011;8861;52.644;4.734;2023-07-16T02:25:33;24.20;;;6.93;;
17488;SDS011;8861;52.644;4.734;2023-07-16T02:28:00;23.63;;;7.40;;
17488;SDS011;8861;52.644;4.734;2023-07-16T02:30:27;24.53;;;7.93;;
17488;SDS011;8861;52.644;4.734;2023-07-16T02:32:54;23.30;;;8.30;;
17488;SDS011;8861;52.644;4.734;2023-07-16T02:35:21;23.07;;;8.67;;
17488;SDS011;8861;52.644;4.734;2023-07-16T02:37:48;23.17;;;8.57;;
17488;SDS011;8861;52.644;4.734;2023-07-16T02:40:16;21.37;;;7.80;;
17488;SDS011;8861;52.644;4.734;2023-07-16T02:42:43;18.70;;;7.33;;
17488;SDS011;8861;52.644;4.734;2023-07-16T02:45:10;28.00;;;8.70;;
17488;SDS011;8861;52.644;4.734;2023-07-16T02:47:37;18.63;;;7.57;;
17488;SDS011;8861;52.644;4.734;2023-07-16T02:50:04;19.40;;;7.47;;
17488;SDS011;8861;52.644;4.734;2023-07-16T02:52:32;21.83;;;7.93;;
17488;SDS011;8861;52.644;4.734;2023-07-16T02:54:59;21.50;;;8.40;;
17488;SDS011;8861;52.644;4.734;2023-07-16T02:57:28;24.57;;;8.57;;
17488;SDS011;8861;52.644;4.734;2023-07-16T02:59:56;27.60;;;9.37;;
17488;SDS011;8861;52.644;4.734;2023-07-16T03:02:23;26.97;;;8.83;;
17488;SDS011;8861;52.644;4.734;2023-07-16T03:04:50;19.77;;;8.37;;
17488;SDS011;8861;52.644;4.734;2023-07-16T03:07:17;23.17;;;8.67;;
17488;SDS011;8861;52.644;4.734;2023-07-16T03:09:44;27.77;;;8.60;;
17488;SDS011;8861;52.644;4.734;2023-07-16T03:12:11;24.87;;;9.00;;
17488;SDS011;8861;52.644;4.734;2023-07-16T03:14:39;26.83;;;9.00;;
17488;SDS011;8861;52.644;4.734;2023-07-16T03:17:06;27.30;;;9.17;;
17488;SDS011;8861;52.644;4.734;2023-07-16T03:19:33;26.87;;;7.80;;
17488;SDS011;8861;52.644;4.734;2023-07-16T03:22:00;16.70;;;6.70;;
17488;SDS011;8861;52.644;4.734;2023-07-16T03:24:28;26.93;;;6.87;;
17488;SDS011;8861;52.644;4.734;2023-07-16T03:26:54;20.07;;;6.00;;
17488;SDS011;8861;52.644;4.734;2023-07-16T03:29:22;19.83;;;6.03;;
17488;SDS011;8861;52.644;4.734;2023-07-16T03:31:50;23.07;;;6.20;;
17488;SDS011;8861;52.644;4.734;2023-07-16T03:34:17;23.47;;;7.00;;
17488;SDS011;8861;52.644;4.734;2023-07-16T03:36:44;22.47;;;6.67;;
17488;SDS011;8861;52.644;4.734;2023-07-16T03:39:11;24.00;;;6.80;;
17488;SDS011;8861;52.644;4.734;2023-07-16T03:41:39;24.17;;;6.47;;
17488;SDS011;8861;52.644;4.734;2023-07-16T03:44:06;25.53;;;6.90;;
17488;SDS011;8861;52.644;4.734;2023-07-16T03:46:33;22.33;;;6.73;;
17488;SDS011;8861;52.644;4.734;2023-07-16T03:49:01;25.70;;;7.03;;
17488;SDS011;8861;52.644;4.734;2023-07-16T03:51:28;24.80;;;6.60;;
17488;SDS011;8861;52.644;4.734;2023-07-16T03:53:56;26.03;;;7.10;;
17488;SDS011;8861;52.644;4.734;2023-07-16T03:56:23;23.20;;;6.73;;
17488;SDS011;8861;52.644;4.734;2023-07-16T03:58:50;28.03;;;7.40;;
17488;SDS011;8861;52.644;4.734;2023-07-16T04:01:17;21.83;;;5.77;;
17488;SDS011;8861;52.644;4.734;2023-07-16T04:03:44;20.07;;;6.13;;
17488;SDS011;8861;52.644;4.734;2023-07-16T04:06:13;22.97;;;6.63;;
17488;SDS011;8861;52.644;4.734;2023-07-16T04:08:40;24.60;;;6.40;;
17488;SDS011;8861;52.644;4.734;2023-07-16T04:11:07;24.57;;;6.10;;
17488;SDS011;8861;52.644;4.734;2023-07-16T04:13:34;20.93;;;6.57;;
17488;SDS011;8861;52.644;4.734;2023-07-16T04:16:01;23.23;;;6.77;;
17488;SDS011;8861;52.644;4.734;2023-07-16T04:18:28;25.50;;;6.73;;
17488;SDS011;8861;52.644;4.734;2023-07-16T04:20:55;26.37;;;6.67;;
17488;SDS011;8861;52.644;4.734;2023-07-16T04:23:24;24.93;;;7.00;;
17488;SDS011;8861;52.644;4.734;2023-07-16T04:25:51;23.77;;;6.77;;
17488;SDS011;8861;52.644;4.734;2023-07-16T04:28:19;20.60;;;6.47;;
17488;SDS011;8861;52.644;4.734;2023-07-16T04:30:45;25.33;;;6.97;;
17488;SDS011;8861;52.644;4.734;2023-07-16T04:33:12;25.67;;;6.97;;
17488;SDS011;8861;52.644;4.734;2023-07-16T04:35:39;25.57;;;7.40;;
17488;SDS011;8861;52.644;4.734;2023-07-16T04:38:06;21.10;;;6.67;;
17488;SDS011;8861;52.644;4.734;2023-07-16T04:40:35;22.43;;;7.00;;
17488;SDS011;8861;52.644;4.734;2023-07-16T04:43:02;24.57;;;7.73;;
17488;SDS011;8861;52.644;4.734;2023-07-16T04:45:29;24.57;;;7.23;;
17488;SDS011;8861;52.644;4.734;2023-07-16T04:47:56;19.37;;;6.13;;
17488;SDS011;8861;52.644;4.734;2023-07-16T04:50:24;21.20;;;6.33;;
17488;SDS011;8861;52.644;4.734;2023-07-16T04:52:51;22.97;;;6.93;;
17488;SDS011;8861;52.644;4.734;2023-07-16T04:55:18;24.90;;;7.00;;
17488;SDS011;8861;52.644;4.734;2023-07-16T04:57:47;24.37;;;6.70;;
17488;SDS011;8861;52.644;4.734;2023-07-16T05:00:14;21.33;;;6.93;;
17488;SDS011;8861;52.644;4.734;2023-07-16T05:02:41;24.43;;;6.70;;
17488;SDS011;8861;52.644;4.734;2023-07-16T05:05:08;23.73;;;7.33;;
17488;SDS011;8861;52.644;4.734;2023-07-16T05:07:35;24.27;;;7.77;;
17488;SDS011;8861;52.644;4.734;2023-07-16T05:10:03;24.73;;;7.23;;
17488;SDS011;8861;52.644;4.734;2023-07-16T05:12:30;22.23;;;6.67;;
17488;SDS011;8861;52.644;4.734;2023-07-16T05:14:58;19.67;;;6.43;;
17488;SDS011;8861;52.644;4.734;2023-07-16T05:17:25;24.43;;;6.70;;
17488;SDS011;8861;52.644;4.734;2023-07-16T05:19:52;24.13;;;5.97;;
17488;SDS011;8861;52.644;4.734;2023-07-16T05:22:19;25.10;;;5.70;;
17488;SDS011;8861;52.644;4.734;2023-07-16T05:24:47;20.53;;;5.40;;
17488;SDS011;8861;52.644;4.734;2023-07-16T05:27:14;21.07;;;5.53;;
17488;SDS011;8861;52.644;4.734;2023-07-16T05:29:43;25.67;;;5.30;;
17488;SDS011;8861;52.644;4.734;2023-07-16T05:32:12;22.53;;;5.60;;
17488;SDS011;8861;52.644;4.734;2023-07-16T05:34:39;20.97;;;5.13;;
17488;SDS011;8861;52.644;4.734;2023-07-16T05:37:06;22.17;;;5.40;;
17488;SDS011;8861;52.644;4.734;2023-07-16T05:39:33;20.97;;;4.97;;
17488;SDS011;8861;52.644;4.734;2023-07-16T05:42:00;19.90;;;5.00;;
17488;SDS011;8861;52.644;4.734;2023-07-16T05:44:27;18.83;;;4.93;;
17488;SDS011;8861;52.644;4.734;2023-07-16T05:46:54;17.03;;;4.83;;
17488;SDS011;8861;52.644;4.734;2023-07-16T05:49:23;19.20;;;5.30;;
17488;SDS011;8861;52.644;4.734;2023-07-16T05:51:50;17.13;;;4.90;;
17488;SDS011;8861;52.644;4.734;2023-07-16T05:54:17;22.63;;;5.63;;
17488;SDS011;8861;52.644;4.734;2023-07-16T05:56:44;17.93;;;5.30;;
17488;SDS011;8861;52.644;4.734;2023-07-16T05:59:11;17.17;;;4.97;;
17488;SDS011;8861;52.644;4.734;2023-07-16T06:01:38;21.63;;;5.50;;
17488;SDS011;8861;52.644;4.734;2023-07-16T06:04:05;21.07;;;5.47;;
17488;SDS011;8861;52.644;4.734;2023-07-16T06:06:34;18.77;;;5.07;;
17488;SDS011;8861;52.644;4.734;2023-07-16T06:09:01;19.10;;;5.50;;
17488;SDS011;8861;52.644;4.734;2023-07-16T06:11:28;19.30;;;5.40;;
17488;SDS011;8861;52.644;4.734;2023-07-16T06:13:55;16.40;;;5.30;;
17488;SDS011;8861;52.644;4.734;2023-07-16T06:16:21;22.80;;;5.90;;
17488;SDS011;8861;52.644;4.734;2023-07-16T06:18:48;21.33;;;5.47;;
17488;SDS011;8861;52.644;4.734;2023-07-16T06:21:15;20.23;;;4.97;;
17488;SDS011;8861;52.644;4.734;2023-07-16T06:23:44;18.83;;;4.77;;
17488;SDS011;8861;52.644;4.734;2023-07-16T06:26:11;17.63;;;4.97;;
17488;SDS011;8861;52.644;4.734;2023-07-16T06:28:38;16.57;;;5.33;;
17488;SDS011;8861;52.644;4.734;2023-07-16T06:31:05;19.90;;;5.80;;
17488;SDS011;8861;52.644;4.734;2023-07-16T06:33:32;24.77;;;6.33;;
17488;SDS011;8861;52.644;4.734;2023-07-16T06:35:59;22.43;;;6.27;;
17488;SDS011;8861;52.644;4.734;2023-07-16T06:38:26;23.77;;;6.23;;
17488;SDS011;8861;52.644;4.734;2023-07-16T06:40:54;24.37;;;5.73;;
17488;SDS011;8861;52.644;4.734;2023-07-16T06:43:21;23.70;;;6.30;;
17488;SDS011;8861;52.644;4.734;2023-07-16T06:45:48;22.53;;;6.00;;
17488;SDS011;8861;52.644;4.734;2023-07-16T06:48:16;30.30;;;7.00;;
17488;SDS011;8861;52.644;4.734;2023-07-16T06:50:43;22.00;;;6.57;;
17488;SDS011;8861;52.644;4.734;2023-07-16T06:53:10;22.57;;;6.60;;
17488;SDS011;8861;52.644;4.734;2023-07-16T06:55:37;21.60;;;6.90;;
17488;SDS011;8861;52.644;4.734;2023-07-16T06:58:05;26.57;;;8.07;;
17488;SDS011;8861;52.644;4.734;2023-07-16T07:00:36;27.37;;;8.97;;
17488;SDS011;8861;52.644;4.734;2023-07-16T07:03:03;28.40;;;8.60;;
17488;SDS011;8861;52.644;4.734;2023-07-16T07:05:30;25.37;;;8.47;;
17488;SDS011;8861;52.644;4.734;2023-07-16T07:07:57;26.57;;;8.60;;
17488;SDS011;8861;52.644;4.734;2023-07-16T07:10:24;17.10;;;6.93;;
17488;SDS011;8861;52.644;4.734;2023-07-16T07:12:51;18.43;;;7.07;;
17488;SDS011;8861;52.644;4.734;2023-07-16T07:15:19;18.30;;;7.50;;
17488;SDS011;8861;52.644;4.734;2023-07-16T07:17:46;22.10;;;6.40;;
17488;SDS011;8861;52.644;4.734;2023-07-16T07:20:15;24.23;;;5.90;;
17488;SDS011;8861;52.644;4.734;2023-07-16T07:22:42;21.63;;;5.83;;
17488;SDS011;8861;52.644;4.734;2023-07-16T07:25:09;22.40;;;5.87;;
17488;SDS011;8861;52.644;4.734;2023-07-16T07:27:36;21.63;;;6.00;;
17488;SDS011;8861;52.644;4.734;2023-07-16T07:30:03;22.20;;;5.80;;
17488;SDS011;8861;52.644;4.734;2023-07-16T07:32:33;20.93;;;5.43;;
17488;SDS011;8861;52.644;4.734;2023-07-16T07:35:03;21.60;;;5.17;;
17488;SDS011;8861;52.644;4.734;2023-07-16T07:37:31;23.43;;;5.30;;
17488;SDS011;8861;52.644;4.734;2023-07-16T07:39:58;16.63;;;4.50;;
17488;SDS011;8861;52.644;4.734;2023-07-16T07:42:25;22.97;;;4.80;;
17488;SDS011;8861;52.644;4.734;2023-07-16T07:44:53;17.27;;;5.10;;
17488;SDS011;8861;52.644;4.734;2023-07-16T07:47:20;22.07;;;5.53;;
17488;SDS011;8861;52.644;4.734;2023-07-16T07:49:49;24.23;;;5.80;;
17488;SDS011;8861;52.644;4.734;2023-07-16T07:52:17;21.20;;;5.63;;
17488;SDS011;8861;52.644;4.734;2023-07-16T07:54:44;22.20;;;6.37;;
17488;SDS011;8861;52.644;4.734;2023-07-16T07:57:11;23.77;;;8.00;;
17488;SDS011;8861;52.644;4.734;2023-07-16T07:59:38;30.93;;;7.93;;
17488;SDS011;8861;52.644;4.734;2023-07-16T08:02:05;19.50;;;7.37;;
17488;SDS011;8861;52.644;4.734;2023-07-16T08:04:32;21.20;;;8.07;;
17488;SDS011;8861;52.644;4.734;2023-07-16T08:07:00;20.67;;;7.93;;
17488;SDS011;8861;52.644;4.734;2023-07-16T08:09:27;25.33;;;8.17;;
17488;SDS011;8861;52.644;4.734;2023-07-16T08:11:54;22.07;;;8.87;;
17488;SDS011;8861;52.644;4.734;2023-07-16T08:14:21;20.47;;;8.60;;
17488;SDS011;8861;52.644;4.734;2023-07-16T08:16:48;23.93;;;8.60;;
17488;SDS011;8861;52.644;4.734;2023-07-16T08:19:15;17.87;;;7.40;;
17488;SDS011;8861;52.644;4.734;2023-07-16T08:21:43;20.07;;;7.77;;
17488;SDS011;8861;52.644;4.734;2023-07-16T08:24:12;22.93;;;8.10;;
17488;SDS011;8861;52.644;4.734;2023-07-16T08:26:38;17.30;;;7.30;;
17488;SDS011;8861;52.644;4.734;2023-07-16T08:29:05;21.60;;;7.33;;
17488;SDS011;8861;52.644;4.734;2023-07-16T08:31:32;20.97;;;7.27;;
17488;SDS011;8861;52.644;4.734;2023-07-16T08:33:59;19.10;;;7.03;;
17488;SDS011;8861;52.644;4.734;2023-07-16T08:36:26;19.10;;;7.80;;
17488;SDS011;8861;52.644;4.734;2023-07-16T08:38:53;21.93;;;8.43;;
17488;SDS011;8861;52.644;4.734;2023-07-16T08:41:22;23.27;;;7.50;;
17488;SDS011;8861;52.644;4.734;2023-07-16T08:43:49;24.33;;;7.50;;
17488;SDS011;8861;52.644;4.734;2023-07-16T08:46:17;20.63;;;6.40;;
17488;SDS011;8861;52.644;4.734;2023-07-16T08:48:44;18.47;;;5.50;;
17488;SDS011;8861;52.644;4.734;2023-07-16T08:51:13;25.53;;;5.80;;
17488;SDS011;8861;52.644;4.734;2023-07-16T08:53:41;18.47;;;5.50;;
17488;SDS011;8861;52.644;4.734;2023-07-16T08:56:08;17.83;;;5.33;;
17488;SDS011;8861;52.644;4.734;2023-07-16T08:58:37;18.83;;;7.30;;
17488;SDS011;8861;52.644;4.734;2023-07-16T09:01:06;18.57;;;6.83;;
17488;SDS011;8861;52.644;4.734;2023-07-16T09:03:34;16.73;;;6.90;;
17488;SDS011;8861;52.644;4.734;2023-07-16T09:06:02;22.77;;;7.90;;
17488;SDS011;8861;52.644;4.734;2023-07-16T09:08:30;24.70;;;8.27;;
17488;SDS011;8861;52.644;4.734;2023-07-16T09:10:57;28.70;;;8.13;;
17488;SDS011;8861;52.644;4.734;2023-07-16T09:13:24;22.47;;;7.50;;
17488;SDS011;8861;52.644;4.734;2023-07-16T09:15:54;25.73;;;7.87;;
17488;SDS011;8861;52.644;4.734;2023-07-16T09:18:23;25.73;;;8.07;;
17488;SDS011;8861;52.644;4.734;2023-07-16T09:20:54;21.67;;;8.00;;
17488;SDS011;8861;52.644;4.734;2023-07-16T09:23:23;27.23;;;7.60;;
17488;SDS011;8861;52.644;4.734;2023-07-16T09:25:52;25.10;;;8.27;;
17488;SDS011;8861;52.644;4.734;2023-07-16T09:28:19;24.73;;;7.90;;
17488;SDS011;8861;52.644;4.734;2023-07-16T09:30:47;23.87;;;7.37;;
17488;SDS011;8861;52.644;4.734;2023-07-16T09:33:18;25.37;;;8.27;;
17488;SDS011;8861;52.644;4.734;2023-07-16T09:35:47;19.47;;;6.57;;
17488;SDS011;8861;52.644;4.734;2023-07-16T09:38:15;20.23;;;6.93;;
17488;SDS011;8861;52.644;4.734;2023-07-16T09:40:43;23.27;;;7.10;;
17488;SDS011;8861;52.644;4.734;2023-07-16T09:43:11;21.97;;;7.07;;
17488;SDS011;8861;52.644;4.734;2023-07-16T09:45:39;25.50;;;8.30;;
17488;SDS011;8861;52.644;4.734;2023-07-16T09:48:07;28.07;;;8.90;;
17488;SDS011;8861;52.644;4.734;2023-07-16T09:50:35;24.97;;;8.23;;
17488;SDS011;8861;52.644;4.734;2023-07-16T09:53:03;23.27;;;6.77;;
17488;SDS011;8861;52.644;4.734;2023-07-16T09:55:32;24.80;;;6.30;;
17488;SDS011;8861;52.644;4.734;2023-07-16T09:58:01;20.53;;;6.20;;
17488;SDS011;8861;52.644;4.734;2023-07-16T10:00:31;21.10;;;6.40;;
17488;SDS011;8861;52.644;4.734;2023-07-16T10:03:00;16.90;;;6.20;;
17488;SDS011;8861;52.644;4.734;2023-07-16T10:05:28;19.60;;;5.60;;
17488;SDS011;8861;52.644;4.734;2023-07-16T10:07:57;17.50;;;4.23;;
17488;SDS011;8861;52.644;4.734;2023-07-16T10:10:25;16.07;;;4.63;;
17488;SDS011;8861;52.644;4.734;2023-07-16T10:12:56;18.40;;;4.20;;
17488;SDS011;8861;52.644;4.734;2023-07-16T10:15:25;16.10;;;3.83;;
17488;SDS011;8861;52.644;4.734;2023-07-16T10:17:53;21.70;;;4.20;;
17488;SDS011;8861;52.644;4.734;2023-07-16T10:20:27;19.77;;;4.00;;
17488;SDS011;8861;52.644;4.734;2023-07-16T10:22:57;16.93;;;3.87;;
17488;SDS011;8861;52.644;4.734;2023-07-16T10:25:24;18.63;;;4.17;;
17488;SDS011;8861;52.644;4.734;2023-07-16T10:27:55;17.97;;;3.83;;
17488;SDS011;8861;52.644;4.734;2023-07-16T10:30:22;17.33;;;3.90;;
17488;SDS011;8861;52.644;4.734;2023-07-16T10:32:50;18.13;;;3.97;;
17488;SDS011;8861;52.644;4.734;2023-07-16T10:35:18;18.97;;;3.80;;
17488;SDS011;8861;52.644;4.734;2023-07-16T10:37:45;15.43;;;3.30;;
17488;SDS011;8861;52.644;4.734;2023-07-16T10:40:14;15.07;;;3.40;;
17488;SDS011;8861;52.644;4.734;2023-07-16T10:42:42;13.93;;;3.80;;
17488;SDS011;8861;52.644;4.734;2023-07-16T10:45:11;13.13;;;3.57;;
17488;SDS011;8861;52.644;4.734;2023-07-16T10:47:39;15.20;;;3.63;;
17488;SDS011;8861;52.644;4.734;2023-07-16T10:50:18;9.93;;;3.40;;
17488;SDS011;8861;52.644;4.734;2023-07-16T10:52:49;14.80;;;3.53;;
17488;SDS011;8861;52.644;4.734;2023-07-16T10:55:19;14.30;;;4.40;;
17488;SDS011;8861;52.644;4.734;2023-07-16T10:57:46;20.33;;;5.07;;
17488;SDS011;8861;52.644;4.734;2023-07-16T11:00:14;16.63;;;5.00;;
17488;SDS011;8861;52.644;4.734;2023-07-16T11:02:42;20.97;;;5.63;;
17488;SDS011;8861;52.644;4.734;2023-07-16T11:05:09;17.83;;;6.00;;
17488;SDS011;8861;52.644;4.734;2023-07-16T11:07:37;24.10;;;6.60;;
17488;SDS011;8861;52.644;4.734;2023-07-16T11:10:05;19.47;;;5.70;;
17488;SDS011;8861;52.644;4.734;2023-07-16T11:12:34;21.30;;;6.07;;
17488;SDS011;8861;52.644;4.734;2023-07-16T11:15:01;20.63;;;5.63;;
17488;SDS011;8861;52.644;4.734;2023-07-16T11:17:29;17.53;;;5.00;;
17488;SDS011;8861;52.644;4.734;2023-07-16T11:19:59;17.97;;;4.10;;
17488;SDS011;8861;52.644;4.734;2023-07-16T11:22:27;16.93;;;3.70;;
17488;SDS011;8861;52.644;4.734;2023-07-16T11:24:54;17.60;;;3.90;;
17488;SDS011;8861;52.644;4.734;2023-07-16T11:27:22;18.67;;;4.30;;
17488;SDS011;8861;52.644;4.734;2023-07-16T11:29:52;18.73;;;4.37;;
17488;SDS011;8861;52.644;4.734;2023-07-16T11:32:30;21.90;;;4.40;;
17488;SDS011;8861;52.644;4.734;2023-07-16T11:35:00;17.10;;;3.80;;
17488;SDS011;8861;52.644;4.734;2023-07-16T11:37:28;21.30;;;4.43;;
17488;SDS011;8861;52.644;4.734;2023-07-16T11:39:56;19.97;;;4.17;;
17488;SDS011;8861;52.644;4.734;2023-07-16T11:42:23;18.00;;;4.07;;
17488;SDS011;8861;52.644;4.734;2023-07-16T11:44:55;18.67;;;3.67;;
17488;SDS011;8861;52.644;4.734;2023-07-16T11:47:22;17.30;;;3.53;;
17488;SDS011;8861;52.644;4.734;2023-07-16T11:49:49;14.77;;;3.60;;
17488;SDS011;8861;52.644;4.734;2023-07-16T11:52:18;15.67;;;4.00;;
17488;SDS011;8861;52.644;4.734;2023-07-16T11:54:46;17.33;;;3.90;;
17488;SDS011;8861;52.644;4.734;2023-07-16T11:57:13;16.97;;;3.33;;
17488;SDS011;8861;52.644;4.734;2023-07-16T11:59:40;16.67;;;3.83;;
17488;SDS011;8861;52.644;4.734;2023-07-16T12:02:09;17.73;;;4.00;;
17488;SDS011;8861;52.644;4.734;2023-07-16T12:04:36;14.83;;;3.47;;
17488;SDS011;8861;52.644;4.734;2023-07-16T12:07:03;19.50;;;3.80;;
17488;SDS011;8861;52.644;4.734;2023-07-16T12:09:30;15.33;;;3.50;;
17488;SDS011;8861;52.644;4.734;2023-07-16T12:11:57;19.90;;;4.03;;
17488;SDS011;8861;52.644;4.734;2023-07-16T12:14:25;17.23;;;4.30;;
17488;SDS011;8861;52.644;4.734;2023-07-16T12:16:52;23.23;;;4.30;;
17488;SDS011;8861;52.644;4.734;2023-07-16T12:19:20;14.57;;;3.70;;
17488;SDS011;8861;52.644;4.734;2023-07-16T12:21:47;16.50;;;3.50;;
17488;SDS011;8861;52.644;4.734;2023-07-16T12:24:14;18.93;;;3.70;;
17488;SDS011;8861;52.644;4.734;2023-07-16T12:26:42;16.60;;;3.33;;
17488;SDS011;8861;52.644;4.734;2023-07-16T12:29:09;18.83;;;3.83;;
17488;SDS011;8861;52.644;4.734;2023-07-16T12:31:36;15.13;;;3.77;;
17488;SDS011;8861;52.644;4.734;2023-07-16T12:34:03;18.10;;;3.90;;
17488;SDS011;8861;52.644;4.734;2023-07-16T12:36:32;14.00;;;3.20;;
17488;SDS011;8861;52.644;4.734;2023-07-16T12:38:59;15.70;;;3.43;;
17488;SDS011;8861;52.644;4.734;2023-07-16T12:41:26;13.63;;;3.40;;
17488;SDS011;8861;52.644;4.734;2023-07-16T12:43:53;14.37;;;3.43;;
17488;SDS011;8861;52.644;4.734;2023-07-16T12:46:20;13.87;;;3.10;;
17488;SDS011;8861;52.644;4.734;2023-07-16T12:48:47;15.57;;;3.10;;
17488;SDS011;8861;52.644;4.734;2023-07-16T12:51:14;15.90;;;3.50;;
17488;SDS011;8861;52.644;4.734;2023-07-16T12:53:42;20.57;;;3.70;;
17488;SDS011;8861;52.644;4.734;2023-07-16T12:56:09;12.10;;;2.97;;
17488;SDS011;8861;52.644;4.734;2023-07-16T12:58:37;17.30;;;3.50;;
17488;SDS011;8861;52.644;4.734;2023-07-16T13:01:04;15.90;;;3.33;;
17488;SDS011;8861;52.644;4.734;2023-07-16T13:03:30;17.57;;;3.13;;
17488;SDS011;8861;52.644;4.734;2023-07-16T13:05:57;16.97;;;3.30;;
17488;SDS011;8861;52.644;4.734;2023-07-16T13:08:24;14.03;;;3.30;;
17488;SDS011;8861;52.644;4.734;2023-07-16T13:10:53;14.53;;;3.40;;
17488;SDS011;8861;52.644;4.734;2023-07-16T13:13:20;15.43;;;3.50;;
17488;SDS011;8861;52.644;4.734;2023-07-16T13:15:47;18.77;;;3.57;;
17488;SDS011;8861;52.644;4.734;2023-07-16T13:18:14;13.90;;;3.40;;
17488;SDS011;8861;52.644;4.734;2023-07-16T13:20:42;14.30;;;3.57;;
17488;SDS011;8861;52.644;4.734;2023-07-16T13:23:09;14.93;;;3.03;;
17488;SDS011;8861;52.644;4.734;2023-07-16T13:25:36;18.20;;;3.40;;
17488;SDS011;8861;52.644;4.734;2023-07-16T13:28:05;14.83;;;3.50;;
17488;SDS011;8861;52.644;4.734;2023-07-16T13:30:32;15.33;;;3.03;;
17488;SDS011;8861;52.644;4.734;2023-07-16T13:32:59;12.10;;;3.30;;
17488;SDS011;8861;52.644;4.734;2023-07-16T13:35:26;15.13;;;3.53;;
17488;SDS011;8861;52.644;4.734;2023-07-16T13:37:53;9.87;;;2.80;;
17488;SDS011;8861;52.644;4.734;2023-07-16T13:40:20;14.00;;;3.00;;
17488;SDS011;8861;52.644;4.734;2023-07-16T13:42:47;15.30;;;3.17;;
17488;SDS011;8861;52.644;4.734;2023-07-16T13:45:16;11.13;;;2.97;;
17488;SDS011;8861;52.644;4.734;2023-07-16T13:47:43;15.30;;;2.90;;
17488;SDS011;8861;52.644;4.734;2023-07-16T13:50:10;18.10;;;3.67;;
17488;SDS011;8861;52.644;4.734;2023-07-16T13:52:37;12.80;;;3.27;;
17488;SDS011;8861;52.644;4.734;2023-07-16T13:55:04;13.10;;;2.93;;
17488;SDS011;8861;52.644;4.734;2023-07-16T13:57:32;15.57;;;3.07;;
17488;SDS011;8861;52.644;4.734;2023-07-16T13:59:59;11.83;;;2.93;;
17488;SDS011;8861;52.644;4.734;2023-07-16T14:02:31;14.70;;;3.10;;
17488;SDS011;8861;52.644;4.734;2023-07-16T14:04:57;12.27;;;3.07;;
17488;SDS011;8861;52.644;4.734;2023-07-16T14:07:24;15.70;;;3.60;;
17488;SDS011;8861;52.644;4.734;2023-07-16T14:09:51;14.80;;;2.90;;
17488;SDS011;8861;52.644;4.734;2023-07-16T14:12:19;13.63;;;3.00;;
17488;SDS011;8861;52.644;4.734;2023-07-16T14:14:47;10.80;;;2.60;;
17488;SDS011;8861;52.644;4.734;2023-07-16T14:17:14;10.83;;;2.70;;
17488;SDS011;8861;52.644;4.734;2023-07-16T14:19:42;15.17;;;3.10;;
17488;SDS011;8861;52.644;4.734;2023-07-16T14:22:09;11.87;;;3.30;;
17488;SDS011;8861;52.644;4.734;2023-07-16T14:24:38;15.63;;;3.20;;
17488;SDS011;8861;52.644;4.734;2023-07-16T14:27:05;10.73;;;2.80;;
17488;SDS011;8861;52.644;4.734;2023-07-16T14:29:33;10.07;;;2.80;;
17488;SDS011;8861;52.644;4.734;2023-07-16T14:32:00;15.07;;;3.00;;
17488;SDS011;8861;52.644;4.734;2023-07-16T14:34:27;8.40;;;2.50;;
17488;SDS011;8861;52.644;4.734;2023-07-16T14:36:56;9.83;;;2.30;;
17488;SDS011;8861;52.644;4.734;2023-07-16T14:39:23;10.43;;;2.23;;
17488;SDS011;8861;52.644;4.734;2023-07-16T14:41:50;6.57;;;2.00;;
17488;SDS011;8861;52.644;4.734;2023-07-16T14:44:17;9.03;;;2.33;;
17488;SDS011;8861;52.644;4.734;2023-07-16T14:46:44;11.57;;;2.43;;
17488;SDS011;8861;52.644;4.734;2023-07-16T14:49:11;9.47;;;2.47;;
17488;SDS011;8861;52.644;4.734;2023-07-16T14:51:38;11.27;;;3.03;;